TimeCST,TemperatureF,Dew PointF,Humidity,Sea Level PressureIn,VisibilityMPH,Wind Direction,Wind SpeedMPH,Gust SpeedMPH,PrecipitationIn,Events,Conditions,WindDirDegrees,DateUTC
12:52 AM,35.1,28.0,76,30.36,10.0,NNE,9.2,-,N/A,,Clear,20,2011-12-26 06:52:00
1:52 AM,36.0,28.0,73,30.37,10.0,NE,8.1,-,N/A,,Clear,40,2011-12-26 07:52:00
2:52 AM,35.1,28.0,76,30.37,10.0,NE,4.6,-,N/A,,Clear,50,2011-12-26 08:52:00
3:52 AM,34.0,28.0,79,30.37,10.0,ENE,3.5,-,N/A,,Clear,60,2011-12-26 09:52:00
5:52 AM,30.9,28.0,89,30.37,10.0,East,3.5,-,N/A,,Clear,80,2011-12-26 11:52:00
6:52 AM,28.9,26.1,89,30.37,10.0,ENE,3.5,-,N/A,,Clear,70,2011-12-26 12:52:00
7:52 AM,30.9,28.0,89,30.37,10.0,East,4.6,-,N/A,,Clear,100,2011-12-26 13:52:00
8:52 AM,34.0,30.0,85,30.34,10.0,East,9.2,-,N/A,,Clear,90,2011-12-26 14:52:00
9:52 AM,37.9,30.9,76,30.32,10.0,East,10.4,-,N/A,,Clear,100,2011-12-26 15:52:00
10:52 AM,39.9,32.0,73,30.29,10.0,ESE,10.4,-,N/A,,Clear,120,2011-12-26 16:52:00
11:52 AM,43.0,30.9,62,30.22,10.0,East,11.5,-,N/A,,Clear,100,2011-12-26 17:52:00
12:52 PM,46.0,30.9,56,30.18,10.0,ESE,5.8,-,N/A,,Clear,110,2011-12-26 18:52:00
1:52 PM,46.9,28.9,50,30.15,10.0,SE,6.9,-,N/A,,Clear,130,2011-12-26 19:52:00
2:52 PM,46.9,28.9,50,30.13,10.0,SSE,5.8,-,N/A,,Clear,150,2011-12-26 20:52:00
3:52 PM,45.0,30.0,56,30.12,10.0,ESE,5.8,-,N/A,,Clear,110,2011-12-26 21:52:00
4:52 PM,45.0,28.9,53,30.10,10.0,ESE,6.9,-,N/A,,Clear,120,2011-12-26 22:52:00
5:52 PM,44.1,30.0,58,30.07,10.0,ESE,5.8,-,0.00,Rain,Light Rain,120,2011-12-26 23:52:00
6:52 PM,43.0,34.0,71,30.06,10.0,ENE,3.5,-,0.00,,Overcast,70,2011-12-27 00:52:00
7:52 PM,42.1,34.0,73,30.02,10.0,Calm,Calm,-,0.00,,Overcast,0,2011-12-27 01:52:00
8:52 PM,41.0,36.0,82,30.00,10.0,ESE,3.5,-,0.01,Rain,Light Rain,110,2011-12-27 02:52:00
9:52 PM,39.9,37.0,89,29.94,4.0,East,8.1,-,0.11,Rain,Rain,90,2011-12-27 03:52:00
10:52 PM,39.0,37.0,93,29.89,9.0,SE,5.8,-,0.10,Rain,Light Rain,130,2011-12-27 04:52:00
11:06 PM,39.2,37.4,93,29.87,7.0,ESE,5.8,-,0.02,Rain,Light Rain,110,2011-12-27 05:06:00
11:21 PM,39.2,37.4,93,29.87,9.0,SE,3.5,-,0.02,Rain,Light Rain,130,2011-12-27 05:21:00
11:52 PM,39.9,37.9,93,29.86,5.0,Calm,Calm,-,0.04,Rain,Light Rain,0,2011-12-27 05:52:00